Time;durP1;ratioP1;P1;durP2;ratioP2;P2;SDS_P1;SDS_P2;PMS_P1;PMS_P2;Temp;Humidity;BMP_temperature;BMP_pressure;BME280_temperature;BME280_humidity;BME280_pressure;Samples;Min_cycle;Max_cycle;Signal;HPM_P1;HPM_P2
2023/03/29 00:02:09;;;;;;;12.00;4.33;;;7.40;37.30;;;;;;5073267;28;20190;-50
2023/03/29 00:04:35;;;;;;;5.83;4.27;;;7.50;37.50;;;;;;5073523;28;20652;-50
2023/03/29 00:07:03;;;;;;;6.10;3.87;;;7.50;37.40;;;;;;5073605;28;20168;-50
2023/03/29 00:09:31;;;;;;;9.23;5.10;;;7.50;37.20;;;;;;5073710;28;20411;-50
2023/03/29 00:11:58;;;;;;;4.88;3.75;;;7.50;37.30;;;;;;5072994;28;20218;-50
2023/03/29 00:14:25;;;;;;;8.02;3.95;;;7.50;37.20;;;;;;5073225;28;20173;-50
2023/03/29 00:16:51;;;;;;;9.63;3.75;;;7.50;37.10;;;;;;5073546;28;20177;-51
2023/03/29 00:19:17;;;;;;;9.30;4.27;;;7.50;37.00;;;;;;5073446;28;20710;-50
2023/03/29 00:21:42;;;;;;;7.50;4.33;;;7.50;37.10;;;;;;5073208;28;20775;-50
2023/03/29 00:24:08;;;;;;;8.70;3.47;;;7.50;37.00;;;;;;5073274;28;20659;-50
2023/03/29 00:26:34;;;;;;;6.40;3.90;;;7.50;37.20;;;;;;5073036;28;20897;-50
2023/03/29 00:29:00;;;;;;;9.67;3.93;;;7.60;36.90;;;;;;5073394;28;20176;-50
2023/03/29 00:31:26;;;;;;;5.10;3.50;;;7.60;36.70;;;;;;5071907;28;20249;-50
2023/03/29 00:33:52;;;;;;;7.10;4.50;;;7.60;36.90;;;;;;5072708;28;20196;-50
2023/03/29 00:36:17;;;;;;;6.67;3.83;;;7.60;37.00;;;;;;5072822;28;20169;-50
2023/03/29 00:38:43;;;;;;;5.63;3.70;;;7.60;36.90;;;;;;5072822;28;20394;-50
2023/03/29 00:41:10;;;;;;;6.30;3.63;;;7.60;36.90;;;;;;5072843;28;20271;-50
2023/03/29 00:43:56;;;;;;;5.97;3.40;;;7.60;36.90;;;;;;5072259;28;20738;-50
2023/03/29 00:46:23;;;;;;;7.00;4.40;;;7.60;37.00;;;;;;5072683;28;20201;-51
2023/03/29 00:48:52;;;;;;;9.23;3.17;;;7.60;37.20;;;;;;5072629;28;20160;-50
2023/03/29 00:51:21;;;;;;;7.82;4.25;;;7.60;37.00;;;;;;5072568;28;20207;-50
2023/03/29 00:53:51;;;;;;;6.13;3.30;;;7.50;37.10;;;;;;5072346;28;20243;-50
2023/03/29 00:56:24;;;;;;;5.57;3.63;;;7.50;37.00;;;;;;5072715;28;20185;-50
2023/03/29 00:58:58;;;;;;;12.02;4.45;;;7.50;36.80;;;;;;5072472;28;20164;-51
2023/03/29 01:01:32;;;;;;;5.13;3.38;;;7.50;36.80;;;;;;5072436;28;20611;-51
2023/03/29 01:04:16;;;;;;;5.88;3.22;;;7.50;36.70;;;;;;5072186;28;20697;-50
2023/03/29 01:06:51;;;;;;;6.97;3.20;;;7.40;36.60;;;;;;5072409;28;20180;-50
2023/03/29 01:09:20;;;;;;;4.38;2.90;;;7.40;36.70;;;;;;5072395;28;20168;-50
2023/03/29 01:11:54;;;;;;;8.02;4.20;;;7.40;36.80;;;;;;5072003;28;20204;-50
2023/03/29 01:14:27;;;;;;;7.35;3.42;;;7.40;37.00;;;;;;5072510;28;20160;-50
2023/03/29 01:16:53;;;;;;;13.18;4.07;;;7.40;37.10;;;;;;5072219;28;20177;-50
2023/03/29 01:19:22;;;;;;;5.00;3.87;;;7.40;37.10;;;;;;5072177;28;20175;-50
2023/03/29 01:21:56;;;;;;;3.95;3.10;;;7.40;37.20;;;;;;5071922;28;20179;-50
2023/03/29 01:24:25;;;;;;;6.43;2.95;;;7.30;37.00;;;;;;5072211;28;20175;-50
2023/03/29 01:27:14;;;;;;;4.82;3.35;;;7.30;37.00;;;;;;5072250;28;20656;-51
2023/03/29 01:30:05;;;;;;;9.98;2.92;;;7.30;37.00;;;;;;5071989;28;20276;-50
2023/03/29 01:32:49;;;;;;;4.35;2.75;;;7.30;36.70;;;;;;5071665;28;20279;-50
2023/03/29 01:35:23;;;;;;;6.97;2.50;;;7.30;36.60;;;;;;5072066;28;20184;-50
2023/03/29 01:38:02;;;;;;;6.15;2.83;;;7.30;36.60;;;;;;5072043;28;20601;-51
2023/03/29 01:40:29;;;;;;;5.00;3.10;;;7.30;36.50;;;;;;5072033;28;20172;-50
2023/03/29 01:43:06;;;;;;;4.45;2.70;;;7.30;36.50;;;;;;5071586;28;20196;-51
2023/03/29 01:45:45;;;;;;;9.10;3.20;;;7.20;36.40;;;;;;5071980;28;20168;-50
2023/03/29 01:48:26;;;;;;;4.90;2.78;;;7.30;36.40;;;;;;5072131;28;20218;-49
2023/03/29 01:51:07;;;;;;;8.18;3.95;;;7.20;36.30;;;;;;5071792;28;20203;-50
2023/03/29 01:53:48;;;;;;;6.35;3.65;;;7.20;36.60;;;;;;5071717;28;20192;-50
2023/03/29 01:56:18;;;;;;;10.23;3.53;;;7.20;36.50;;;;;;5071807;28;20180;-50
2023/03/29 01:58:48;;;;;;;3.45;2.92;;;7.10;36.60;;;;;;5071788;28;20166;-51
2023/03/29 02:01:18;;;;;;;3.67;2.65;;;7.10;36.50;;;;;;5071772;28;20212;-51
2023/03/29 02:03:49;;;;;;;7.40;4.00;;;7.10;36.50;;;;;;5071642;28;20215;-50
2023/03/29 02:06:22;;;;;;;8.57;3.50;;;7.10;36.60;;;;;;5072039;28;20172;-50
2023/03/29 02:08:50;;;;;;;9.25;4.05;;;7.10;36.50;;;;;;5071794;28;20168;-51
2023/03/29 02:11:16;;;;;;;4.90;2.50;;;7.10;36.60;;;;;;5071512;28;20232;-51
2023/03/29 02:13:42;;;;;;;9.70;3.60;;;7.10;36.80;;;;;;5071457;28;20220;-50
2023/03/29 02:16:13;;;;;;;6.22;3.45;;;7.10;36.80;;;;;;5071685;28;20169;-51
2023/03/29 02:18:41;;;;;;;5.35;3.00;;;7.10;36.80;;;;;;5071653;28;20694;-50
2023/03/29 02:21:09;;;;;;;6.63;2.67;;;7.10;36.70;;;;;;5071610;28;20649;-50
2023/03/29 02:23:46;;;;;;;5.00;4.25;;;7.10;36.90;;;;;;5071172;28;20207;-50
2023/03/29 02:26:13;;;;;;;4.65;3.45;;;7.10;36.80;;;;;;5071775;28;20207;-50
2023/03/29 02:28:40;;;;;;;4.85;3.30;;;7.20;36.90;;;;;;5071655;28;20173;-50
2023/03/29 02:31:14;;;;;;;7.88;3.25;;;7.20;36.70;;;;;;5071407;28;20291;-50
2023/03/29 02:33:57;;;;;;;5.93;3.55;;;7.20;36.60;;;;;;5071151;28;20273;-50
2023/03/29 02:36:30;;;;;;;13.30;3.50;;;7.20;36.70;;;;;;5071525;28;20169;-50
2023/03/29 02:38:59;;;;;;;13.05;3.85;;;7.10;36.60;;;;;;5071502;28;20219;-50
2023/03/29 02:41:26;;;;;;;5.88;2.92;;;7.10;37.40;;;;;;5071265;28;20233;-49
2023/03/29 02:43:54;;;;;;;6.90;3.20;;;7.10;36.80;;;;;;5071474;28;20251;-50
2023/03/29 02:46:20;;;;;;;9.27;3.70;;;7.20;36.80;;;;;;5071366;28;20189;-50
2023/03/29 02:48:50;;;;;;;9.87;3.30;;;7.10;36.80;;;;;;5071381;28;20202;-51
2023/03/29 02:51:21;;;;;;;4.90;3.13;;;7.20;36.90;;;;;;5071429;28;20511;-50
2023/03/29 02:54:11;;;;;;;6.47;3.45;;;7.20;36.80;;;;;;5071075;28;20268;-50
2023/03/29 02:57:05;;;;;;;4.93;3.40;;;7.20;36.90;;;;;;5075101;28;20223;-50
2023/03/29 02:59:32;;;;;;;4.25;2.97;;;7.20;37.00;;;;;;5074831;28;20184;-50
2023/03/29 03:01:59;;;;;;;5.78;3.70;;;7.20;37.00;;;;;;5074497;28;20191;-50
2023/03/29 03:04:25;;;;;;;17.00;5.72;;;7.20;36.80;;;;;;5074859;28;20212;-50
2023/03/29 03:06:51;;;;;;;6.40;3.85;;;7.30;36.90;;;;;;5074747;28;20250;-51
2023/03/29 03:09:18;;;;;;;6.83;2.87;;;7.30;37.50;;;;;;5074559;28;20652;-50
2023/03/29 03:11:44;;;;;;;8.27;3.25;;;7.30;37.00;;;;;;5074135;28;20204;-50
2023/03/29 03:14:10;;;;;;;8.10;4.13;;;7.30;37.00;;;;;;5074462;28;20226;-50
2023/03/29 03:16:36;;;;;;;6.20;3.60;;;7.30;36.90;;;;;;5074567;28;20226;-50
2023/03/29 03:19:02;;;;;;;9.90;5.43;;;7.30;36.80;;;;;;5074696;28;20567;-50
2023/03/29 03:21:28;;;;;;;6.00;4.22;;;7.30;36.80;;;;;;5074490;28;20183;-50
2023/03/29 03:23:54;;;;;;;5.03;3.50;;;7.30;36.80;;;;;;5074000;28;20201;-50
2023/03/29 03:26:22;;;;;;;4.43;2.85;;;7.30;36.80;;;;;;5074166;28;20180;-50
2023/03/29 03:28:48;;;;;;;3.90;3.20;;;7.30;36.70;;;;;;5074286;28;20188;-50
2023/03/29 03:31:14;;;;;;;11.85;5.95;;;7.30;36.70;;;;;;5074034;28;20213;-50
2023/03/29 03:33:40;;;;;;;6.20;2.97;;;7.30;36.70;;;;;;5073856;28;20184;-50
2023/03/29 03:36:10;;;;;;;7.95;4.10;;;7.30;36.50;;;;;;5074151;28;20175;-50
2023/03/29 03:38:37;;;;;;;6.38;3.17;;;7.20;36.50;;;;;;5073926;28;20169;-50
2023/03/29 03:41:03;;;;;;;5.95;3.30;;;7.30;36.70;;;;;;5074019;28;20176;-50
2023/03/29 03:43:30;;;;;;;5.35;3.58;;;7.30;36.50;;;;;;5073627;28;20204;-50
2023/03/29 03:45:56;;;;;;;8.65;2.72;;;7.40;36.20;;;;;;5073885;28;20660;-51
2023/03/29 03:48:22;;;;;;;12.45;3.42;;;7.40;36.20;;;;;;5073835;28;20176;-50
2023/03/29 03:50:53;;;;;;;5.72;2.80;;;7.40;36.30;;;;;;5073734;28;20203;-50
2023/03/29 03:53:20;;;;;;;7.10;3.75;;;7.40;36.40;;;;;;5073419;28;20220;-50
2023/03/29 03:55:50;;;;;;;5.80;3.53;;;7.40;37.10;;;;;;5073844;28;20222;-50
2023/03/29 03:58:17;;;;;;;6.38;3.70;;;7.40;36.50;;;;;;5073751;28;20176;-50
2023/03/29 04:00:46;;;;;;;9.52;4.70;;;7.30;36.70;;;;;;5073549;28;20510;-50
2023/03/29 04:03:12;;;;;;;4.47;2.78;;;7.40;36.70;;;;;;5073262;28;20291;-50
2023/03/29 04:05:43;;;;;;;16.75;3.97;;;7.30;36.70;;;;;;5073392;28;20200;-51
2023/03/29 04:08:10;;;;;;;10.07;4.18;;;7.30;36.80;;;;;;5073435;28;20179;-50
2023/03/29 04:10:35;;;;;;;11.43;4.70;;;7.30;37.00;;;;;;5073420;28;20256;-50
2023/03/29 04:13:02;;;;;;;5.10;2.80;;;7.30;37.00;;;;;;5073080;28;20273;-51
2023/03/29 04:15:28;;;;;;;14.75;3.90;;;7.30;37.00;;;;;;5073292;28;20172;-50
2023/03/29 04:17:58;;;;;;;6.22;4.03;;;7.30;36.90;;;;;;5073573;28;20181;-50
2023/03/29 04:20:24;;;;;;;7.50;4.45;;;7.30;36.80;;;;;;5073422;28;20222;-50
2023/03/29 04:22:50;;;;;;;7.80;4.43;;;7.30;36.70;;;;;;5072860;28;20676;-50
2023/03/29 04:25:17;;;;;;;8.27;3.67;;;7.30;36.60;;;;;;5073098;28;20247;-50
2023/03/29 04:27:43;;;;;;;8.65;3.65;;;7.30;36.60;;;;;;5073192;28;20179;-50
2023/03/29 04:30:10;;;;;;;8.88;4.55;;;7.30;36.50;;;;;;5072983;28;20195;-50
2023/03/29 04:32:35;;;;;;;7.25;3.85;;;7.30;36.40;;;;;;5072499;28;20219;-50
2023/03/29 04:35:03;;;;;;;9.83;5.37;;;7.40;36.40;;;;;;5073020;28;20157;-50
2023/03/29 04:37:30;;;;;;;5.72;4.25;;;7.40;36.30;;;;;;5072815;28;20506;-50
2023/03/29 04:39:59;;;;;;;7.50;4.78;;;7.40;36.20;;;;;;5072662;28;20570;-50
2023/03/29 04:42:26;;;;;;;8.32;4.70;;;7.40;36.10;;;;;;5072753;28;20204;-50
2023/03/29 04:44:52;;;;;;;11.52;4.55;;;7.40;36.20;;;;;;5072681;28;20588;-49
2023/03/29 04:47:18;;;;;;;9.60;4.43;;;7.40;36.20;;;;;;5072556;28;20253;-50
2023/03/29 04:49:44;;;;;;;17.90;6.15;;;7.40;36.10;;;;;;5071392;28;20524;-50
2023/03/29 04:52:10;;;;;;;7.40;3.90;;;7.40;36.00;;;;;;5072402;28;20209;-50
2023/03/29 04:54:36;;;;;;;13.27;5.03;;;7.40;36.10;;;;;;5072489;28;20169;-49
2023/03/29 04:57:06;;;;;;;6.20;4.40;;;7.40;36.10;;;;;;5072484;28;20168;-49
2023/03/29 04:59:33;;;;;;;7.10;3.88;;;7.40;36.20;;;;;;5072798;28;20248;-50
2023/03/29 05:02:01;;;;;;;10.15;4.68;;;7.50;36.10;;;;;;5071986;28;20180;-52
2023/03/29 05:04:28;;;;;;;11.88;4.05;;;7.50;36.00;;;;;;5072381;28;20168;-50
2023/03/29 05:06:54;;;;;;;9.90;4.63;;;7.50;35.90;;;;;;5072413;28;20229;-49
2023/03/29 05:09:20;;;;;;;7.50;4.15;;;7.50;36.00;;;;;;5072136;28;20551;-52
2023/03/29 05:11:46;;;;;;;7.28;4.22;;;7.60;35.90;;;;;;5072311;28;20283;-50
2023/03/29 05:14:12;;;;;;;8.00;5.03;;;7.60;35.90;;;;;;5072324;28;20175;-49
2023/03/29 05:16:40;;;;;;;11.50;5.57;;;7.60;35.70;;;;;;5072450;28;20181;-50
2023/03/29 05:19:10;;;;;;;11.77;5.70;;;7.60;35.90;;;;;;5072117;28;20745;-50
2023/03/29 05:21:36;;;;;;;12.70;4.53;;;7.70;35.70;;;;;;5072389;28;20177;-51
2023/03/29 05:24:03;;;;;;;9.85;5.13;;;7.70;35.60;;;;;;5071928;28;20200;-50
2023/03/29 05:26:29;;;;;;;9.23;5.75;;;7.70;35.70;;;;;;5072429;28;20187;-53
2023/03/29 05:28:55;;;;;;;5.80;3.93;;;7.70;35.60;;;;;;5072271;28;20177;-51
2023/03/29 05:31:22;;;;;;;10.63;4.72;;;7.80;35.40;;;;;;5071873;28;20454;-51
2023/03/29 05:33:49;;;;;;;7.53;4.40;;;7.70;35.60;;;;;;5071928;28;20196;-51
2023/03/29 05:36:17;;;;;;;9.95;4.63;;;7.80;35.40;;;;;;5071980;28;20260;-51
2023/03/29 05:38:46;;;;;;;8.38;4.07;;;7.80;35.30;;;;;;5071899;28;20183;-51
2023/03/29 05:41:14;;;;;;;8.35;4.32;;;7.80;35.40;;;;;;5072096;28;20180;-51
2023/03/29 05:43:40;;;;;;;7.25;3.80;;;7.90;35.20;;;;;;5071502;28;20291;-51
2023/03/29 05:46:06;;;;;;;6.30;4.35;;;8.00;35.00;;;;;;5070665;28;20259;-51
2023/03/29 05:48:32;;;;;;;7.37;3.93;;;8.00;34.90;;;;;;5071867;28;20207;-51
2023/03/29 05:50:58;;;;;;;7.37;4.40;;;8.00;34.90;;;;;;5072048;28;20794;-51
2023/03/29 05:53:26;;;;;;;8.03;4.20;;;8.00;34.60;;;;;;5071488;28;20419;-51
2023/03/29 05:55:52;;;;;;;8.32;4.00;;;8.00;34.60;;;;;;5072074;28;20341;-51
2023/03/29 05:58:20;;;;;;;7.72;4.75;;;8.00;34.70;;;;;;5071684;28;20208;-52
2023/03/29 06:00:48;;;;;;;9.60;5.53;;;8.00;34.60;;;;;;5071926;28;20259;-51
2023/03/29 06:03:22;;;;;;;6.35;4.32;;;8.10;34.50;;;;;;5071553;28;20192;-51
2023/03/29 06:05:55;;;;;;;16.23;3.85;;;8.10;34.70;;;;;;5071756;28;20230;-52
2023/03/29 06:08:22;;;;;;;7.45;3.45;;;8.10;34.60;;;;;;5071651;28;20702;-52
2023/03/29 06:10:49;;;;;;;11.90;4.78;;;8.20;34.50;;;;;;5071453;28;20282;-51
2023/03/29 06:13:15;;;;;;;8.35;4.30;;;8.20;34.50;;;;;;5071239;28;20814;-51
2023/03/29 06:15:40;;;;;;;11.85;4.30;;;8.20;34.50;;;;;;5071535;28;20283;-51
2023/03/29 06:18:06;;;;;;;7.07;4.50;;;8.30;34.50;;;;;;5071721;28;20256;-51
2023/03/29 06:20:32;;;;;;;6.20;3.30;;;8.30;34.50;;;;;;5071611;28;20188;-51
2023/03/29 06:22:58;;;;;;;9.60;4.90;;;8.40;34.50;;;;;;5071244;28;20184;-51
2023/03/29 06:25:23;;;;;;;5.00;3.50;;;8.40;34.20;;;;;;5071738;28;20169;-51
2023/03/29 06:27:50;;;;;;;6.00;4.70;;;8.40;34.60;;;;;;5071505;28;20176;-51
2023/03/29 06:30:18;;;;;;;7.85;4.60;;;8.40;34.40;;;;;;5073563;28;20513;-51
2023/03/29 06:32:44;;;;;;;7.20;4.45;;;8.50;34.20;;;;;;5074988;28;20204;-51
2023/03/29 06:35:10;;;;;;;6.80;5.20;;;8.40;34.90;;;;;;5075500;28;20200;-51
2023/03/29 06:37:39;;;;;;;11.52;4.45;;;8.50;34.50;;;;;;5075104;28;20275;-51
2023/03/29 06:40:05;;;;;;;12.80;4.10;;;8.60;34.20;;;;;;5075236;28;20265;-51
2023/03/29 06:42:31;;;;;;;8.75;4.50;;;8.60;34.40;;;;;;5074662;28;20282;-51
2023/03/29 06:44:58;;;;;;;7.35;4.10;;;8.60;34.40;;;;;;5074949;28;20264;-51
2023/03/29 06:47:29;;;;;;;7.80;4.30;;;8.60;34.20;;;;;;5075124;28;20194;-51
2023/03/29 06:49:55;;;;;;;10.90;5.18;;;8.70;34.30;;;;;;5074994;28;20165;-51
2023/03/29 06:52:21;;;;;;;8.77;5.85;;;8.80;34.00;;;;;;5074399;28;20221;-52
2023/03/29 06:54:48;;;;;;;8.63;4.60;;;8.80;34.20;;;;;;5074872;28;20174;-51
2023/03/29 06:57:13;;;;;;;10.48;5.38;;;8.70;34.10;;;;;;5074950;28;20412;-51
2023/03/29 06:59:39;;;;;;;11.20;5.83;;;8.80;34.20;;;;;;5074833;28;20169;-51
2023/03/29 07:02:06;;;;;;;14.23;5.73;;;8.80;34.40;;;;;;5074422;28;20198;-51
2023/03/29 07:04:32;;;;;;;7.75;4.75;;;8.80;34.30;;;;;;5074885;28;20640;-51
2023/03/29 07:07:00;;;;;;;6.67;4.30;;;8.90;34.40;;;;;;5074804;28;20177;-52
2023/03/29 07:09:29;;;;;;;6.10;4.97;;;8.90;34.50;;;;;;5074883;28;20433;-51
2023/03/29 07:11:59;;;;;;;5.55;4.20;;;9.00;34.20;;;;;;5074182;28;20212;-51
2023/03/29 07:14:27;;;;;;;9.70;4.10;;;9.00;34.10;;;;;;5073287;28;20594;-52
2023/03/29 07:16:59;;;;;;;9.35;4.10;;;9.10;34.30;;;;;;5074801;28;20199;-51
2023/03/29 07:19:26;;;;;;;7.88;4.47;;;9.10;34.30;;;;;;5074558;28;20265;-52
2023/03/29 07:21:53;;;;;;;16.33;6.55;;;9.10;34.00;;;;;;5074017;28;20641;-51
2023/03/29 07:24:19;;;;;;;5.60;4.35;;;9.10;34.00;;;;;;5074493;28;20182;-51
2023/03/29 07:26:47;;;;;;;8.77;4.03;;;9.10;33.90;;;;;;5074358;28;20265;-51
2023/03/29 07:29:13;;;;;;;8.35;5.22;;;9.00;33.40;;;;;;5074352;28;20240;-52
2023/03/29 07:31:40;;;;;;;5.45;3.90;;;9.10;33.70;;;;;;5074152;28;20260;-51
2023/03/29 07:34:09;;;;;;;7.15;3.67;;;9.10;33.90;;;;;;5073836;28;20203;-51
2023/03/29 07:36:38;;;;;;;9.18;4.80;;;9.10;33.80;;;;;;5074236;28;20178;-51
2023/03/29 07:39:05;;;;;;;8.50;4.75;;;9.20;33.80;;;;;;5074251;28;20167;-51
2023/03/29 07:41:31;;;;;;;14.80;5.35;;;9.20;33.60;;;;;;5073500;28;20185;-51
2023/03/29 07:44:03;;;;;;;4.40;3.65;;;9.20;33.70;;;;;;5073943;28;20194;-51
2023/03/29 07:46:29;;;;;;;9.57;5.70;;;9.30;33.70;;;;;;5073869;28;20194;-51
2023/03/29 07:48:56;;;;;;;9.73;4.35;;;9.30;33.60;;;;;;5073937;28;20171;-51
2023/03/29 07:51:22;;;;;;;8.52;3.75;;;9.30;33.50;;;;;;5073906;28;20203;-51
2023/03/29 07:53:48;;;;;;;5.40;3.85;;;9.30;33.30;;;;;;5073540;28;20196;-52
2023/03/29 07:56:14;;;;;;;6.50;3.90;;;9.20;33.60;;;;;;5073704;28;20543;-51
2023/03/29 07:58:40;;;;;;;5.30;3.38;;;9.30;33.80;;;;;;5073770;28;20565;-51
2023/03/29 08:01:07;;;;;;;9.83;5.00;;;9.30;33.60;;;;;;5073551;28;20236;-51
2023/03/29 08:03:33;;;;;;;8.65;3.80;;;9.40;34.30;;;;;;5073530;28;20436;-51
2023/03/29 08:06:02;;;;;;;10.02;3.80;;;9.40;34.30;;;;;;5073760;28;20187;-51
2023/03/29 08:08:28;;;;;;;6.55;3.88;;;9.40;34.10;;;;;;5073472;28;20213;-52
2023/03/29 08:10:54;;;;;;;8.10;3.77;;;9.40;34.40;;;;;;5073315;28;20236;-51
2023/03/29 08:13:19;;;;;;;7.00;4.63;;;9.40;34.70;;;;;;5073057;28;20196;-52
2023/03/29 08:15:47;;;;;;;5.33;4.33;;;9.40;34.70;;;;;;5073366;28;20173;-52
2023/03/29 08:18:13;;;;;;;7.55;4.03;;;9.40;35.00;;;;;;5073489;28;20242;-51
2023/03/29 08:20:40;;;;;;;7.93;4.03;;;9.30;35.30;;;;;;5073273;28;20650;-51
2023/03/29 08:23:06;;;;;;;5.35;3.67;;;9.40;35.30;;;;;;5072848;28;20535;-52
2023/03/29 08:25:32;;;;;;;10.43;3.63;;;9.30;35.10;;;;;;5072128;28;20178;-52
2023/03/29 08:27:57;;;;;;;15.75;5.70;;;9.30;35.60;;;;;;5073054;28;20175;-52
2023/03/29 08:30:24;;;;;;;12.93;4.00;;;9.30;35.60;;;;;;5072828;28;20196;-51
2023/03/29 08:32:51;;;;;;;7.80;3.88;;;9.40;35.40;;;;;;5072584;28;20259;-51
2023/03/29 08:35:18;;;;;;;9.40;4.40;;;9.40;35.40;;;;;;5072830;28;20177;-51
2023/03/29 08:37:43;;;;;;;7.65;3.55;;;9.50;35.30;;;;;;5072915;28;20198;-51
2023/03/29 08:40:18;;;;;;;7.50;4.03;;;9.40;35.60;;;;;;5072825;28;20260;-52
2023/03/29 08:43:14;;;;;;;6.53;3.65;;;9.50;35.30;;;;;;5072508;28;20445;-52
2023/03/29 08:45:55;;;;;;;11.73;4.65;;;9.50;35.60;;;;;;5072779;28;20552;-52
2023/03/29 08:48:24;;;;;;;11.85;5.10;;;9.40;36.00;;;;;;5072749;28;20664;-51
2023/03/29 08:50:57;;;;;;;5.68;3.92;;;9.50;35.90;;;;;;5072574;28;20229;-51
2023/03/29 08:53:34;;;;;;;8.23;4.07;;;9.50;35.90;;;;;;5071507;28;20199;-52
2023/03/29 08:56:07;;;;;;;7.47;3.95;;;9.60;35.90;;;;;;5072562;28;20180;-52
2023/03/29 08:58:35;;;;;;;8.32;4.82;;;9.70;35.90;;;;;;5072724;28;20242;-52
2023/03/29 09:01:07;;;;;;;6.70;4.15;;;9.70;36.00;;;;;;5072763;28;20186;-51
2023/03/29 09:03:46;;;;;;;10.55;4.85;;;9.90;35.90;;;;;;5071992;28;20678;-51
2023/03/29 09:06:13;;;;;;;9.80;4.68;;;9.90;35.90;;;;;;5072479;28;20671;-52
2023/03/29 09:08:44;;;;;;;10.60;5.20;;;10.00;35.90;;;;;;5072359;28;20674;-52
2023/03/29 09:11:22;;;;;;;6.07;4.20;;;10.10;35.90;;;;;;5072493;28;20293;-51
2023/03/29 09:14:27;;;;;;;9.65;4.82;;;10.20;35.90;;;;;;5072030;28;20732;-51
2023/03/29 09:16:58;;;;;;;12.15;4.47;;;10.30;35.90;;;;;;5072157;28;20169;-52
2023/03/29 09:19:30;;;;;;;12.48;4.38;;;10.20;35.50;;;;;;5072320;28;20229;-52
2023/03/29 09:22:17;;;;;;;7.93;3.97;;;10.30;35.80;;;;;;5071960;28;20206;-51
2023/03/29 09:24:55;;;;;;;6.25;4.85;;;10.40;35.50;;;;;;5072150;28;20494;-52
2023/03/29 09:27:29;;;;;;;7.30;4.47;;;10.30;35.60;;;;;;5072399;28;20603;-52
2023/03/29 09:29:55;;;;;;;6.70;4.40;;;10.40;35.70;;;;;;5072091;28;20198;-51
2023/03/29 09:32:38;;;;;;;7.53;4.37;;;10.40;35.90;;;;;;5071735;28;20749;-49
2023/03/29 09:35:26;;;;;;;6.55;4.35;;;10.50;35.80;;;;;;5072342;28;20593;-51
2023/03/29 09:37:53;;;;;;;7.22;4.43;;;10.60;35.60;;;;;;5072033;28;20223;-52
2023/03/29 09:40:40;;;;;;;9.35;4.57;;;10.70;35.80;;;;;;5070920;28;20176;-52
2023/03/29 09:43:10;;;;;;;5.78;3.88;;;10.80;35.90;;;;;;5071627;28;20197;-51
2023/03/29 09:45:38;;;;;;;8.35;4.32;;;10.90;35.90;;;;;;5071860;28;20565;-52
2023/03/29 09:48:13;;;;;;;5.72;3.78;;;11.00;35.60;;;;;;5071945;28;20222;-51
2023/03/29 09:50:46;;;;;;;9.90;4.65;;;11.00;35.60;;;;;;5071994;28;20254;-52
2023/03/29 09:53:14;;;;;;;6.75;4.57;;;11.10;35.80;;;;;;5071597;28;20192;-51
2023/03/29 09:55:40;;;;;;;6.75;4.43;;;11.20;35.80;;;;;;5071749;28;20218;-52
2023/03/29 09:58:14;;;;;;;6.50;3.70;;;11.30;35.90;;;;;;5071824;28;20211;-51
2023/03/29 10:00:40;;;;;;;8.63;4.70;;;11.40;35.80;;;;;;5071989;28;20169;-52
2023/03/29 10:03:05;;;;;;;9.35;4.88;;;11.40;35.40;;;;;;5071825;28;20275;-52
2023/03/29 10:05:36;;;;;;;8.13;4.50;;;11.50;35.20;;;;;;5075832;28;20252;-52
2023/03/29 10:08:18;;;;;;;4.63;3.95;;;11.50;35.10;;;;;;5075753;28;20159;-52
2023/03/29 10:10:43;;;;;;;11.35;4.60;;;11.60;34.90;;;;;;5075904;28;20281;-50
2023/03/29 10:13:20;;;;;;;9.60;5.40;;;11.60;35.20;;;;;;5075508;28;20749;-52
2023/03/29 10:16:00;;;;;;;7.05;3.95;;;11.60;35.10;;;;;;5075675;28;20431;-52
2023/03/29 10:18:26;;;;;;;6.50;4.90;;;11.70;35.10;;;;;;5075877;28;20171;-52
2023/03/29 10:20:59;;;;;;;7.30;4.75;;;11.80;35.10;;;;;;5075586;28;20639;-52
2023/03/29 10:23:32;;;;;;;5.28;4.75;;;11.90;35.00;;;;;;5075175;28;20209;-50
2023/03/29 10:25:58;;;;;;;5.85;4.07;;;12.00;34.60;;;;;;5075687;28;20172;-50
2023/03/29 10:28:26;;;;;;;4.90;4.00;;;12.00;34.70;;;;;;5075362;28;20238;-51
2023/03/29 10:30:55;;;;;;;7.18;5.60;;;12.00;34.60;;;;;;5075159;28;20427;-52
2023/03/29 10:33:23;;;;;;;5.57;4.38;;;12.10;34.90;;;;;;5074841;28;20193;-51
2023/03/29 10:35:49;;;;;;;7.43;4.35;;;12.10;34.80;;;;;;5075556;28;20244;-53
2023/03/29 10:38:21;;;;;;;6.75;4.50;;;12.20;34.20;;;;;;5075051;28;20181;-51
2023/03/29 10:40:48;;;;;;;7.97;4.00;;;12.10;34.10;;;;;;5075264;28;20172;-50
2023/03/29 10:43:17;;;;;;;4.65;3.80;;;12.10;34.50;;;;;;5075043;28;20219;-53
2023/03/29 10:45:46;;;;;;;4.88;3.83;;;12.20;34.50;;;;;;5074891;28;20733;-52
2023/03/29 10:48:14;;;;;;;5.10;4.60;;;12.10;34.40;;;;;;5075267;28;20177;-50
2023/03/29 10:50:41;;;;;;;6.20;4.00;;;12.10;34.50;;;;;;5074919;28;20172;-50
2023/03/29 10:53:27;;;;;;;5.20;4.22;;;12.10;35.00;;;;;;5074736;28;20200;-52
2023/03/29 10:56:15;;;;;;;5.18;3.60;;;12.10;34.70;;;;;;5074912;28;20229;-50
2023/03/29 10:58:55;;;;;;;8.07;4.20;;;12.20;35.00;;;;;;5075111;28;20179;-52
2023/03/29 11:01:40;;;;;;;8.52;4.50;;;12.20;34.70;;;;;;5075088;28;20608;-50
2023/03/29 11:04:25;;;;;;;6.50;4.28;;;12.40;35.00;;;;;;5074766;28;20234;-51
2023/03/29 11:07:32;;;;;;;6.78;4.32;;;12.30;34.80;;;;;;5074678;28;20188;-52
2023/03/29 11:10:25;;;;;;;7.53;4.78;;;12.40;34.80;;;;;;5074901;28;20172;-50
2023/03/29 11:13:20;;;;;;;6.55;5.22;;;12.40;34.80;;;;;;5074278;28;20204;-51
2023/03/29 11:16:09;;;;;;;6.65;4.90;;;12.40;34.90;;;;;;5073825;28;20230;-51
2023/03/29 11:19:10;;;;;;;6.80;5.30;;;12.50;35.10;;;;;;5074026;28;20552;-51
2023/03/29 11:21:39;;;;;;;6.43;4.93;;;12.50;35.00;;;;;;5074655;28;20176;-51
2023/03/29 11:24:26;;;;;;;5.35;4.60;;;12.60;34.60;;;;;;5074362;28;20295;-52
2023/03/29 11:27:13;;;;;;;8.77;6.40;;;12.60;34.90;;;;;;5074695;28;20176;-52
2023/03/29 11:30:16;;;;;;;7.35;5.80;;;12.60;34.90;;;;;;5074312;28;20192;-49
2023/03/29 11:32:54;;;;;;;8.98;6.50;;;12.80;35.20;;;;;;5073651;28;20270;-53
2023/03/29 11:35:47;;;;;;;7.07;5.35;;;13.00;35.40;;;;;;5074437;28;20218;-51
2023/03/29 11:38:38;;;;;;;8.27;6.75;;;13.20;34.00;;;;;;5074206;28;20177;-50
2023/03/29 11:41:14;;;;;;;7.82;5.40;;;13.30;34.20;;;;;;5074039;28;20583;-51
2023/03/29 11:44:10;;;;;;;16.15;5.70;;;13.40;34.00;;;;;;5073985;28;20204;-51
2023/03/29 11:46:59;;;;;;;10.00;6.90;;;13.50;33.90;;;;;;5073970;28;20160;-51
2023/03/29 11:49:33;;;;;;;9.57;6.07;;;13.50;33.70;;;;;;5073627;28;20394;-53
2023/03/29 11:52:11;;;;;;;8.15;5.90;;;13.50;33.60;;;;;;5073597;28;20249;-50
2023/03/29 11:54:46;;;;;;;7.03;5.95;;;13.60;33.90;;;;;;5074024;28;20172;-50
2023/03/29 11:57:30;;;;;;;9.35;7.03;;;13.60;33.50;;;;;;5073749;28;20621;-53
2023/03/29 12:00:36;;;;;;;9.85;6.60;;;13.60;33.50;;;;;;5073930;28;20165;-51
2023/03/29 12:03:05;;;;;;;12.65;6.30;;;13.70;33.30;;;;;;5073595;28;20582;-53
2023/03/29 12:05:42;;;;;;;9.65;7.25;;;13.70;33.40;;;;;;5073768;28;20195;-51
2023/03/29 12:08:15;;;;;;;14.55;6.90;;;13.80;33.20;;;;;;5073544;28;20251;-54
2023/03/29 12:10:48;;;;;;;8.60;6.60;;;13.90;33.30;;;;;;5073569;28;20181;-51
2023/03/29 12:13:19;;;;;;;8.57;6.32;;;14.10;33.20;;;;;;5073355;28;20266;-51
2023/03/29 12:16:01;;;;;;;7.15;5.85;;;14.30;32.70;;;;;;5073686;28;20222;-51
2023/03/29 12:18:32;;;;;;;9.82;8.02;;;14.40;32.80;;;;;;5073252;28;20247;-52
2023/03/29 12:21:05;;;;;;;10.13;6.97;;;14.40;32.30;;;;;;5073617;28;20165;-51
2023/03/29 12:23:32;;;;;;;8.57;6.72;;;14.30;32.00;;;;;;5072853;28;20189;-51
2023/03/29 12:26:17;;;;;;;11.70;9.18;;;14.20;32.50;;;;;;5073149;28;20216;-53
2023/03/29 12:29:07;;;;;;;9.38;7.55;;;14.20;32.60;;;;;;5073197;28;20225;-50
2023/03/29 12:31:58;;;;;;;13.38;9.20;;;14.10;32.70;;;;;;5073029;28;20211;-50
2023/03/29 12:34:58;;;;;;;11.82;8.68;;;14.10;32.70;;;;;;5072950;28;20161;-51
2023/03/29 12:37:37;;;;;;;13.00;9.30;;;14.20;32.40;;;;;;5072908;28;20204;-51
2023/03/29 12:40:16;;;;;;;10.43;8.10;;;14.10;32.30;;;;;;5072894;28;20172;-50
2023/03/29 12:42:53;;;;;;;12.98;9.77;;;14.10;32.50;;;;;;5072546;28;20196;-53
2023/03/29 12:45:38;;;;;;;10.77;8.65;;;14.10;32.20;;;;;;5073046;28;20482;-50
2023/03/29 12:48:06;;;;;;;13.98;9.95;;;14.20;33.40;;;;;;5072982;28;20187;-51
2023/03/29 12:50:34;;;;;;;10.10;8.38;;;14.20;32.30;;;;;;5073059;28;20177;-53
2023/03/29 12:53:22;;;;;;;9.60;7.80;;;14.30;32.00;;;;;;5072655;28;20220;-53
2023/03/29 12:56:11;;;;;;;14.10;9.10;;;14.30;32.00;;;;;;5072604;28;20153;-51
2023/03/29 12:58:57;;;;;;;11.95;9.20;;;14.40;31.80;;;;;;5072687;28;20175;-53
2023/03/29 13:01:35;;;;;;;10.88;7.60;;;14.40;32.10;;;;;;5072717;28;20176;-51
2023/03/29 13:04:18;;;;;;;10.85;8.00;;;14.60;31.40;;;;;;5072176;28;20200;-51
2023/03/29 13:06:55;;;;;;;8.85;6.90;;;14.50;31.40;;;;;;5072430;28;20157;-50
2023/03/29 13:09:22;;;;;;;12.02;9.65;;;14.60;31.90;;;;;;5072555;28;20286;-51
2023/03/29 13:12:25;;;;;;;9.63;8.52;;;14.60;31.20;;;;;;5071607;28;20253;-52
2023/03/29 13:14:57;;;;;;;12.63;9.68;;;14.60;31.60;;;;;;5071374;28;20226;-52
2023/03/29 13:20:22;;;;;;;12.93;8.75;;;14.70;31.70;;;;;;5030183;28;20217;-53